Time;durP1;ratioP1;P1;durP2;ratioP2;P2;SDS_P1;SDS_P2;PMS_P1;PMS_P2;Temp;Humidity;BMP_temperature;BMP_pressure;BME280_temperature;BME280_humidity;BME280_pressure;Samples;Min_cycle;Max_cycle;Signal;HPM_P1;HPM_P2
2022/01/08 00:00:58;;;;;;;141.47;54.73;;;;;;;-9.30;81.49;98115.14;1722883;82;21009;-55
2022/01/08 00:03:25;;;;;;;118.10;45.38;;;;;;;-9.28;81.26;98114.00;1737103;82;21017;-55
2022/01/08 00:05:56;;;;;;;133.55;51.08;;;;;;;-9.22;80.02;98095.52;1737055;82;21064;-55
2022/01/08 00:08:21;;;;;;;94.80;34.53;;;;;;;-9.27;79.76;98089.89;1737242;82;21036;-54
2022/01/08 00:10:48;;;;;;;157.43;55.40;;;;;;;-9.28;79.62;98096.95;1737048;82;21000;-55
2022/01/08 00:13:16;;;;;;;161.30;62.80;;;;;;;-9.30;79.58;98100.70;1736929;82;47076;-55
2022/01/08 00:15:43;;;;;;;139.05;56.85;;;;;;;-9.28;80.19;98094.32;1728840;82;20999;-55
2022/01/08 00:18:10;;;;;;;132.18;48.13;;;;;;;-9.27;80.81;98100.39;1712596;82;20952;-55
2022/01/08 00:20:37;;;;;;;165.97;63.60;;;;;;;-9.19;80.42;98107.02;1719348;82;21003;-55
2022/01/08 00:23:03;;;;;;;159.52;61.28;;;;;;;-9.26;80.29;98102.86;1737226;82;21312;-55
2022/01/08 00:25:30;;;;;;;113.47;44.15;;;;;;;-9.27;80.20;98103.84;1736938;82;21191;-54
2022/01/08 00:27:57;;;;;;;141.30;53.10;;;;;;;-9.27;79.75;98103.02;1737115;82;21516;-55
2022/01/08 00:30:24;;;;;;;138.77;53.70;;;;;;;-9.36;79.84;98106.06;1732251;82;21007;-56
2022/01/08 00:32:51;;;;;;;146.55;61.85;;;;;;;-9.48;79.63;98099.42;1736902;82;21016;-55
2022/01/08 00:35:19;;;;;;;144.97;57.08;;;;;;;-9.52;79.54;98098.06;1736991;82;21393;-55
2022/01/08 00:37:45;;;;;;;130.35;50.98;;;;;;;-9.52;79.80;98102.00;1719156;82;21064;-55
2022/01/08 00:40:13;;;;;;;131.45;45.80;;;;;;;-9.74;79.66;98101.95;1715339;82;21538;-55
2022/01/08 00:42:40;;;;;;;131.95;46.00;;;;;;;-9.68;79.18;98106.60;1737276;82;22023;-55
2022/01/08 00:45:08;;;;;;;124.00;43.02;;;;;;;-9.73;79.35;98099.69;1734911;82;21012;-55
2022/01/08 00:47:36;;;;;;;123.95;43.55;;;;;;;-9.70;79.16;98105.94;1722281;80;21434;-55
2022/01/08 00:50:05;;;;;;;120.85;46.33;;;;;;;-9.69;78.96;98095.29;1703409;84;20990;-55
2022/01/08 00:52:32;;;;;;;122.25;45.90;;;;;;;-9.68;79.78;98100.05;1709400;82;20993;-54
2022/01/08 00:54:59;;;;;;;105.20;39.75;;;;;;;-9.59;80.27;98088.64;1706976;82;21024;-55
2022/01/08 00:57:26;;;;;;;119.50;46.48;;;;;;;-9.61;79.72;98101.59;1728698;82;21485;-55
2022/01/08 00:59:53;;;;;;;109.22;41.65;;;;;;;-9.74;80.25;98091.00;1736850;82;22082;-55
2022/01/08 01:02:20;;;;;;;135.25;48.70;;;;;;;-9.79;80.12;98092.41;1723312;82;20995;-55
2022/01/08 01:04:47;;;;;;;129.85;47.67;;;;;;;-10.04;79.82;98089.55;1712557;83;21066;-55
2022/01/08 01:07:14;;;;;;;124.80;44.10;;;;;;;-10.16;78.98;98088.61;1730260;82;21012;-55
2022/01/08 01:09:40;;;;;;;118.42;43.87;;;;;;;-10.34;79.45;98084.19;1737201;82;20993;-54
2022/01/08 01:12:08;;;;;;;138.77;53.98;;;;;;;-10.44;80.44;98096.98;1736869;82;21368;-56
2022/01/08 01:14:35;;;;;;;123.00;45.78;;;;;;;-10.50;81.10;98094.48;1737027;82;21407;-53
2022/01/08 01:17:02;;;;;;;118.40;46.25;;;;;;;-10.51;82.21;98091.48;1736732;82;21048;-55
2022/01/08 01:19:30;;;;;;;87.40;35.30;;;;;;;-10.39;81.84;98081.17;1737179;82;21051;-56
2022/01/08 01:21:59;;;;;;;81.32;33.58;;;;;;;-10.29;81.56;98074.07;1736794;82;21583;-55
2022/01/08 01:24:27;;;;;;;;;;;;;;;-10.22;80.60;98070.38;1739768;82;21340;-56
2022/01/08 01:27:35;;;;;;;117.77;42.45;;;;;;;-10.18;80.50;98075.63;1727712;82;20132;-55
2022/01/08 01:48:24;;;;;;;97.25;35.63;;;;;;;-10.10;79.20;98051.30;1754865;80;21037;-55
2022/01/08 01:50:51;;;;;;;96.20;40.35;;;;;;;-10.10;79.28;98050.81;1748853;80;21330;-55
2022/01/08 01:53:18;;;;;;;94.58;36.90;;;;;;;-10.11;79.68;98052.27;1712711;82;21061;-55
2022/01/08 01:55:45;;;;;;;83.60;33.60;;;;;;;-10.10;79.04;98052.12;1712743;82;21010;-56
2022/01/08 01:58:12;;;;;;;90.95;34.80;;;;;;;-10.11;79.98;98047.85;1712629;82;21355;-55
2022/01/08 02:00:39;;;;;;;86.92;31.80;;;;;;;-10.09;79.43;98041.97;1719986;82;20997;-55
2022/01/08 02:03:06;;;;;;;77.85;30.23;;;;;;;-10.06;79.16;98035.13;1737316;82;21312;-55
2022/01/08 02:05:33;;;;;;;74.60;27.65;;;;;;;-10.10;80.49;98031.15;1736982;82;21060;-55
2022/01/08 02:08:00;;;;;;;89.87;35.45;;;;;;;-10.18;79.69;98029.75;1737367;82;21021;-55
2022/01/08 02:10:26;;;;;;;93.85;34.55;;;;;;;-10.32;79.52;98027.70;1731777;82;21002;-55
2022/01/08 02:12:53;;;;;;;85.25;29.75;;;;;;;-10.27;79.78;98024.12;1712822;82;21297;-56
2022/01/08 02:15:20;;;;;;;79.60;32.95;;;;;;;-10.27;79.01;98011.84;1712593;82;21448;-56
2022/01/08 02:17:47;;;;;;;75.70;30.92;;;;;;;-10.31;79.70;98016.24;1735925;82;21055;-55
2022/01/08 02:20:14;;;;;;;81.57;30.30;;;;;;;-10.23;80.06;98015.50;1737199;82;21009;-55
2022/01/08 02:22:41;;;;;;;81.35;36.60;;;;;;;-10.31;79.97;98005.76;1736954;82;21079;-55
2022/01/08 02:25:09;;;;;;;73.95;27.95;;;;;;;-10.31;79.33;98003.96;1737320;82;21075;-54
2022/01/08 02:27:36;;;;;;;70.17;24.93;;;;;;;-10.29;79.03;97999.88;1737163;82;22248;-56
2022/01/08 02:30:04;;;;;;;70.85;27.13;;;;;;;-10.34;79.03;97983.31;1737057;82;21020;-56
2022/01/08 02:32:31;;;;;;;54.67;21.70;;;;;;;-10.39;80.13;97978.17;1715897;82;21506;-55
2022/01/08 02:34:58;;;;;;;69.37;25.68;;;;;;;-10.32;81.01;97983.16;1713127;80;21427;-55
2022/01/08 02:37:29;;;;;;;69.42;26.40;;;;;;;-10.37;80.36;97990.63;1716864;82;21070;-55
2022/01/08 02:39:54;;;;;;;;;;;;;;;-10.42;79.23;97998.95;1715197;83;21319;-55
2022/01/08 02:42:21;;;;;;;80.70;27.60;;;;;;;-10.38;80.07;98000.28;1731612;82;20187;-55
2022/01/08 02:44:48;;;;;;;41.10;18.73;;;;;;;-10.29;79.38;97988.91;1737057;82;21147;-56
2022/01/08 02:47:16;;;;;;;70.00;27.35;;;;;;;-10.11;79.42;97982.81;1725717;80;21023;-56
2022/01/08 02:49:43;;;;;;;53.63;25.80;;;;;;;-9.83;79.38;97971.73;1707447;84;21084;-55
2022/01/08 02:52:11;;;;;;;73.02;27.82;;;;;;;-9.63;79.60;97968.45;1663619;83;22189;-55
2022/01/08 02:54:37;;;;;;;71.42;29.45;;;;;;;-9.56;79.85;97965.05;1732740;82;21512;-55
2022/01/08 02:57:04;;;;;;;66.20;24.52;;;;;;;-9.74;78.21;97959.86;1725769;82;21022;-56
2022/01/08 02:59:32;;;;;;;73.33;30.17;;;;;;;-9.96;78.29;97963.78;1712672;82;20976;-56
2022/01/08 03:01:59;;;;;;;38.75;19.45;;;;;;;-10.03;78.68;97962.73;1712657;82;21074;-56
2022/01/08 03:04:26;;;;;;;77.00;27.30;;;;;;;-10.00;79.06;97966.38;1712947;83;21424;-56
2022/01/08 03:06:53;;;;;;;57.08;24.45;;;;;;;-9.92;79.82;97959.53;1712293;82;20991;-55
2022/01/08 03:09:20;;;;;;;60.17;23.52;;;;;;;-9.82;80.40;97963.73;1712732;83;21015;-56
2022/01/08 03:11:47;;;;;;;74.50;30.27;;;;;;;-9.68;79.87;97969.72;1712666;80;22040;-55
2022/01/08 03:14:13;;;;;;;62.20;27.02;;;;;;;-9.56;79.77;97943.25;1737304;82;21036;-56
2022/01/08 03:16:40;;;;;;;59.10;23.10;;;;;;;-9.48;79.75;97945.92;1717931;82;21303;-56
2022/01/08 03:19:11;;;;;;;56.68;24.02;;;;;;;-9.45;79.10;97949.53;1714596;80;21530;-56
2022/01/08 03:21:43;;;;;;;59.33;23.45;;;;;;;-9.37;79.18;97945.65;1728864;82;21018;-56
2022/01/08 03:24:15;;;;;;;56.10;22.93;;;;;;;-9.29;79.16;97948.81;1737374;82;21451;-56
2022/01/08 03:26:40;;;;;;;69.85;26.12;;;;;;;-9.25;79.06;97951.44;1736578;82;21037;-55
2022/01/08 03:29:08;;;;;;;65.62;23.57;;;;;;;-9.31;77.86;97955.98;1737302;82;21386;-56
2022/01/08 03:31:35;;;;;;;60.15;26.35;;;;;;;-9.38;77.86;97955.81;1731050;82;21049;-55
2022/01/08 03:34:03;;;;;;;62.83;23.40;;;;;;;-9.38;78.12;97954.50;1712379;83;21069;-56
2022/01/08 03:36:29;;;;;;;18.30;9.80;;;;;;;-9.39;78.22;97940.56;1722971;82;21072;-56
2022/01/08 03:38:56;;;;;;;43.02;18.35;;;;;;;-9.35;78.43;97938.92;1737250;82;21063;-55
2022/01/08 03:41:23;;;;;;;42.80;18.15;;;;;;;-9.33;78.58;97935.65;1731057;82;21308;-55
2022/01/08 03:43:50;;;;;;;48.23;18.23;;;;;;;-9.35;78.71;97927.94;1737141;82;21004;-56
2022/01/08 03:46:21;;;;;;;51.92;20.55;;;;;;;-9.37;78.66;97923.34;1736998;82;21500;-55
2022/01/08 03:49:12;;;;;;;45.43;19.20;;;;;;;-9.40;79.21;97911.36;1717765;82;21051;-55
2022/01/08 03:51:17;;;;;;;50.88;23.40;;;;;;;-9.47;78.40;97905.58;1714037;82;21544;-56
2022/01/08 03:53:44;;;;;;;39.78;18.65;;;;;;;-9.70;77.87;97911.34;1737429;82;21391;-56
2022/01/08 03:56:11;;;;;;;59.08;22.02;;;;;;;-9.90;78.66;97912.53;1735257;82;21155;-56
2022/01/08 03:58:38;;;;;;;52.10;19.80;;;;;;;-9.87;79.43;97918.77;1712851;83;21090;-56
2022/01/08 04:01:05;;;;;;;15.95;7.37;;;;;;;-9.77;79.03;97910.80;1718753;82;21094;-56
2022/01/08 04:03:32;;;;;;;56.08;24.27;;;;;;;-9.66;78.87;97907.42;1737401;82;21024;-56
2022/01/08 04:05:59;;;;;;;43.63;18.23;;;;;;;-9.35;79.09;97899.56;1731663;82;22066;-56
2022/01/08 04:08:25;;;;;;;38.92;17.62;;;;;;;-9.02;78.55;97900.52;1737200;82;21418;-56
2022/01/08 04:10:52;;;;;;;46.98;19.73;;;;;;;-8.93;77.95;97899.06;1732526;82;22023;-56
2022/01/08 04:13:24;;;;;;;54.58;21.10;;;;;;;-9.08;77.55;97900.66;1712386;82;21015;-55
2022/01/08 04:15:51;;;;;;;53.48;20.40;;;;;;;-9.21;77.72;97895.86;1721157;82;21477;-56
2022/01/08 04:18:17;;;;;;;;;;;;;;;-9.25;77.58;97893.20;1716665;82;21365;-56
2022/01/08 04:23:20;;;;;;;59.63;19.45;;;;;;;-9.31;77.69;97910.91;1737045;82;20992;-56
2022/01/08 04:25:46;;;;;;;34.40;13.98;;;;;;;-9.43;78.00;97912.97;1728353;82;21058;-56
2022/01/08 04:28:12;;;;;;;40.28;19.48;;;;;;;-9.40;78.02;97905.27;1712655;82;21034;-56
2022/01/08 04:30:39;;;;;;;39.75;18.80;;;;;;;-9.48;77.62;97911.81;1714745;82;20975;-55
2022/01/08 04:33:06;;;;;;;40.43;15.32;;;;;;;-9.62;78.55;97911.06;1715864;82;20995;-56
2022/01/08 04:35:33;;;;;;;36.45;14.60;;;;;;;-9.61;78.46;97907.46;1713655;82;20979;-56
2022/01/08 04:38:00;;;;;;;38.55;15.88;;;;;;;-9.64;77.91;97910.41;1716766;82;21006;-56
2022/01/08 04:40:27;;;;;;;40.12;17.07;;;;;;;-9.71;77.89;97912.33;1712760;82;21027;-55
2022/01/08 04:42:54;;;;;;;24.77;10.28;;;;;;;-9.80;78.31;97905.39;1718042;82;21416;-57
2022/01/08 04:45:23;;;;;;;44.13;18.95;;;;;;;-9.66;78.31;97903.98;1712571;82;20975;-56
2022/01/08 04:47:49;;;;;;;;;;;;;;;-9.68;78.66;97898.89;1731273;82;22020;-55
2022/01/08 04:50:16;;;;;;;47.20;19.77;;;;;;;-9.63;79.09;97908.11;1707613;82;20228;-56
2022/01/08 04:52:43;;;;;;;36.50;16.57;;;;;;;-9.60;78.80;97911.23;1711984;82;20988;-56
2022/01/08 04:55:11;;;;;;;52.70;18.77;;;;;;;-9.55;78.33;97916.03;1714872;82;21514;-55
2022/01/08 04:57:38;;;;;;;45.98;19.05;;;;;;;-9.58;78.24;97906.65;1727572;81;22072;-55
2022/01/08 05:00:06;;;;;;;51.00;19.30;;;;;;;-9.54;78.93;97905.87;1735391;82;21579;-56
2022/01/08 05:02:33;;;;;;;34.73;14.43;;;;;;;-9.50;78.43;97911.13;1727896;82;21541;-56
2022/01/08 05:05:00;;;;;;;52.58;23.77;;;;;;;-9.46;78.23;97905.42;1736984;82;21004;-56
2022/01/08 05:07:27;;;;;;;48.20;19.90;;;;;;;-9.52;78.83;97900.79;1737027;82;20992;-56
2022/01/08 05:09:54;;;;;;;49.95;21.82;;;;;;;-9.56;78.43;97905.20;1736990;82;21064;-55
2022/01/08 05:12:21;;;;;;;70.05;24.57;;;;;;;-9.70;77.80;97900.03;1717657;82;21013;-56
2022/01/08 05:14:48;;;;;;;44.13;16.75;;;;;;;-9.72;77.87;97907.24;1712665;83;21070;-55
2022/01/08 05:17:16;;;;;;;46.53;20.02;;;;;;;-9.75;77.54;97905.73;1723216;82;21428;-56
2022/01/08 05:19:49;;;;;;;55.45;24.75;;;;;;;-9.90;77.37;97901.23;1712725;82;21066;-56
2022/01/08 05:22:20;;;;;;;48.92;19.60;;;;;;;-9.97;78.07;97908.39;1729690;82;20978;-56
2022/01/08 05:24:40;;;;;;;;;;;;;;;-9.93;78.32;97906.76;1738900;82;21060;-56
2022/01/08 05:27:10;;;;;;;47.50;20.72;;;;;;;-9.95;78.39;97899.05;1737240;82;20840;-56
2022/01/08 05:29:36;;;;;;;;;;;;;;;-9.98;78.19;97901.50;1740005;82;21068;-56
2022/01/08 05:32:03;;;;;;;67.85;22.87;;;;;;;-10.06;78.37;97905.37;1737195;82;21536;-56
2022/01/08 05:34:30;;;;;;;55.67;19.30;;;;;;;-10.20;78.21;97903.29;1737514;82;21013;-55
2022/01/08 05:36:57;;;;;;;50.10;22.75;;;;;;;-10.16;78.01;97899.41;1727681;82;21475;-56
2022/01/08 05:39:24;;;;;;;64.82;27.17;;;;;;;-10.36;78.35;97911.05;1712677;83;21062;-56
2022/01/08 05:41:51;;;;;;;55.40;22.62;;;;;;;-10.34;78.62;97907.33;1727007;82;21087;-56
2022/01/08 05:44:18;;;;;;;66.15;26.52;;;;;;;-10.27;78.39;97900.48;1737407;82;21403;-56
2022/01/08 05:46:47;;;;;;;54.00;18.42;;;;;;;-10.23;78.42;97903.63;1725646;82;21025;-56
2022/01/08 05:49:15;;;;;;;;;;;;;;;-10.15;78.45;97899.73;1715434;82;21032;-56
2022/01/08 05:51:42;;;;;;;42.70;18.07;;;;;;;-10.18;78.71;97897.41;1701018;82;20150;-56
2022/01/08 05:54:08;;;;;;;48.50;20.57;;;;;;;-10.16;79.00;97904.65;1712694;83;21490;-55
2022/01/08 05:56:35;;;;;;;48.00;17.57;;;;;;;-10.15;79.37;97912.84;1717964;82;21231;-56
2022/01/08 05:59:03;;;;;;;42.88;18.27;;;;;;;-10.14;78.86;97909.73;1711485;82;21016;-56
2022/01/08 06:01:29;;;;;;;23.95;11.85;;;;;;;-10.13;79.02;97907.45;1716827;82;21023;-56
2022/01/08 06:03:56;;;;;;;37.03;16.95;;;;;;;-10.12;78.48;97906.47;1716087;82;21480;-56
2022/01/08 06:06:24;;;;;;;62.95;20.68;;;;;;;-10.21;78.46;97909.51;1736819;82;21059;-56
2022/01/08 06:08:50;;;;;;;44.20;20.35;;;;;;;-10.25;79.14;97914.77;1736797;82;21336;-56
2022/01/08 06:11:17;;;;;;;50.23;20.88;;;;;;;-10.25;78.65;97909.52;1723284;82;21002;-56
2022/01/08 06:13:44;;;;;;;53.13;22.75;;;;;;;-10.34;78.29;97909.09;1712499;83;21050;-56
2022/01/08 06:16:11;;;;;;;49.42;20.62;;;;;;;-10.42;78.83;97913.80;1725040;82;21260;-56
2022/01/08 06:18:39;;;;;;;25.50;11.83;;;;;;;-10.40;78.41;97911.02;1737092;82;21476;-56
2022/01/08 06:21:05;;;;;;;47.53;17.42;;;;;;;-10.42;78.46;97909.05;1736968;82;22063;-56
2022/01/08 06:23:32;;;;;;;41.48;16.87;;;;;;;-10.44;78.20;97909.17;1736922;82;21039;-56
2022/01/08 06:25:59;;;;;;;59.55;21.42;;;;;;;-10.47;79.10;97908.66;1736985;82;21060;-56
2022/01/08 06:28:26;;;;;;;50.30;20.55;;;;;;;-10.48;79.06;97894.75;1737030;82;21461;-56
2022/01/08 06:30:54;;;;;;;51.15;19.98;;;;;;;-10.48;78.87;97896.55;1736831;82;20985;-56
2022/01/08 06:33:20;;;;;;;49.10;20.02;;;;;;;-10.55;79.15;97892.38;1737027;82;21344;-56
2022/01/08 06:35:48;;;;;;;59.23;22.58;;;;;;;-10.51;78.66;97889.78;1734315;82;21087;-55
2022/01/08 06:38:15;;;;;;;42.17;17.25;;;;;;;-10.54;79.12;97885.68;1737248;82;20993;-56
2022/01/08 06:40:42;;;;;;;39.60;16.62;;;;;;;-10.43;78.88;97889.86;1730838;80;21024;-56
2022/01/08 06:43:09;;;;;;;54.05;20.95;;;;;;;-10.40;79.19;97885.64;1737022;82;21032;-55
2022/01/08 06:45:36;;;;;;;37.55;16.15;;;;;;;-10.36;79.38;97885.66;1737281;82;21369;-55
2022/01/08 06:48:04;;;;;;;45.78;19.67;;;;;;;-10.29;78.63;97888.02;1727641;82;21500;-56
2022/01/08 06:50:31;;;;;;;43.23;20.12;;;;;;;-10.30;79.83;97893.42;1709243;82;21456;-56
2022/01/08 06:52:58;;;;;;;48.48;20.37;;;;;;;-10.16;79.57;97895.97;1704381;80;21485;-56
2022/01/08 06:55:26;;;;;;;52.00;19.42;;;;;;;-10.04;79.48;97896.05;1713479;82;21360;-55
2022/01/08 06:57:54;;;;;;;36.23;16.25;;;;;;;-9.99;78.76;97888.55;1737358;82;21440;-55
2022/01/08 07:00:21;;;;;;;45.35;17.57;;;;;;;-9.95;78.74;97884.14;1737412;82;21020;-55
2022/01/08 07:02:48;;;;;;;58.68;22.25;;;;;;;-9.93;79.53;97885.78;1713126;82;21019;-56
2022/01/08 07:05:15;;;;;;;62.65;28.55;;;;;;;-9.82;79.75;97888.99;1715786;82;21058;-56
2022/01/08 07:07:42;;;;;;;52.38;23.32;;;;;;;-9.77;79.14;97897.20;1714205;82;21019;-55
2022/01/08 07:10:09;;;;;;;41.30;18.45;;;;;;;-9.73;78.29;97898.55;1714880;82;21317;-56
2022/01/08 07:12:36;;;;;;;42.40;20.17;;;;;;;-9.68;78.25;97893.65;1737279;82;21011;-56
2022/01/08 07:15:04;;;;;;;55.20;27.73;;;;;;;-9.72;78.26;97894.12;1737314;82;20997;-55
2022/01/08 07:17:31;;;;;;;70.03;30.97;;;;;;;-9.58;78.46;97890.91;1736982;82;21513;-55
2022/01/08 07:19:58;;;;;;;58.55;24.60;;;;;;;-9.48;78.90;97885.08;1737278;82;21444;-55
2022/01/08 07:22:25;;;;;;;70.95;33.02;;;;;;;-9.48;78.58;97889.02;1717177;82;21416;-55
2022/01/08 07:24:51;;;;;;;53.80;25.90;;;;;;;-9.43;78.39;97886.73;1712551;82;20995;-56
2022/01/08 07:27:18;;;;;;;78.17;36.40;;;;;;;-9.30;78.32;97878.93;1718673;82;21065;-56
2022/01/08 07:29:46;;;;;;;95.10;51.42;;;;;;;-9.29;77.86;97872.70;1712546;83;21590;-56
2022/01/08 07:32:12;;;;;;;87.78;38.20;;;;;;;-9.28;78.20;97872.53;1730355;82;21013;-56
2022/01/08 07:34:39;;;;;;;134.70;64.62;;;;;;;-9.12;78.49;97874.40;1737133;82;21303;-56
2022/01/08 07:37:07;;;;;;;97.90;46.33;;;;;;;-9.08;78.27;97872.27;1720144;82;20972;-56
2022/01/08 07:39:33;;;;;;;97.17;45.12;;;;;;;-8.97;77.85;97870.64;1712468;83;21073;-56
2022/01/08 07:42:00;;;;;;;71.02;32.75;;;;;;;-8.99;78.06;97871.30;1712531;82;20996;-55
2022/01/08 07:44:27;;;;;;;78.35;38.20;;;;;;;-8.90;78.44;97869.84;1712387;83;21065;-56
2022/01/08 07:46:56;;;;;;;84.13;37.65;;;;;;;-8.78;78.83;97861.19;1712428;82;21389;-55
2022/01/08 07:49:23;;;;;;;75.55;35.78;;;;;;;-8.64;79.00;97856.59;1767189;80;20991;-56
2022/01/08 07:51:50;;;;;;;86.63;37.73;;;;;;;-8.47;78.94;97863.18;1729350;80;20988;-55
2022/01/08 07:54:17;;;;;;;80.45;37.10;;;;;;;-8.37;79.39;97861.23;1707558;84;21073;-56
2022/01/08 07:56:44;;;;;;;62.45;29.00;;;;;;;-8.28;79.38;97854.47;1710128;82;20979;-56
2022/01/08 07:59:10;;;;;;;73.70;36.85;;;;;;;-8.14;79.30;97845.57;1712378;83;21394;-55
2022/01/08 08:01:38;;;;;;;74.10;33.78;;;;;;;-7.98;79.15;97849.50;1718302;82;21459;-56
2022/01/08 08:04:04;;;;;;;58.65;25.72;;;;;;;-7.85;79.65;97843.24;1712462;83;21015;-55
2022/01/08 08:06:32;;;;;;;54.45;28.35;;;;;;;-7.63;79.39;97854.84;1723139;82;21033;-56
2022/01/08 08:08:59;;;;;;;103.07;48.63;;;;;;;-7.53;79.49;97852.84;1729992;82;21032;-56
2022/01/08 08:11:26;;;;;;;146.07;67.22;;;;;;;-7.39;78.92;97848.69;1722402;82;21407;-56
2022/01/08 08:13:53;;;;;;;97.17;45.03;;;;;;;-7.29;78.81;97847.98;1709291;83;21068;-56
2022/01/08 08:16:20;;;;;;;62.13;33.65;;;;;;;-7.13;78.15;97847.09;1707994;82;20993;-55
2022/01/08 08:18:48;;;;;;;35.00;17.17;;;;;;;-6.96;78.21;97840.75;1732685;82;21472;-56
2022/01/08 08:21:15;;;;;;;65.50;33.33;;;;;;;-6.81;78.19;97846.11;1719920;82;21068;-56
2022/01/08 08:23:42;;;;;;;95.28;55.90;;;;;;;-6.77;78.13;97840.80;1732763;82;21214;-56
2022/01/08 08:26:09;;;;;;;71.45;40.88;;;;;;;-6.73;77.25;97843.42;1728672;82;21051;-56
2022/01/08 08:28:36;;;;;;;78.10;42.62;;;;;;;-6.65;77.22;97845.19;1728401;82;20993;-56
2022/01/08 08:31:03;;;;;;;57.27;28.40;;;;;;;-6.61;77.30;97834.61;1724319;82;21450;-56
2022/01/08 08:33:30;;;;;;;72.75;36.60;;;;;;;-6.51;77.49;97840.46;1726144;82;21021;-56
2022/01/08 08:35:57;;;;;;;68.33;37.60;;;;;;;-6.46;77.98;97829.40;1719278;82;22094;-56
2022/01/08 08:38:24;;;;;;;71.45;38.58;;;;;;;-6.32;77.95;97827.32;1729727;82;21520;-56
2022/01/08 08:40:51;;;;;;;73.40;32.85;;;;;;;-6.22;77.46;97833.16;1718476;82;21020;-56
2022/01/08 08:43:19;;;;;;;103.70;45.43;;;;;;;-6.11;77.14;97826.63;1723870;82;21079;-56
2022/01/08 08:45:46;;;;;;;87.67;40.43;;;;;;;-6.04;76.68;97832.34;1711045;82;21099;-56
2022/01/08 08:48:13;;;;;;;97.60;47.75;;;;;;;-5.94;77.33;97833.90;1737788;80;21432;-56
2022/01/08 08:50:40;;;;;;;108.10;50.73;;;;;;;-5.81;77.62;97834.05;1753433;80;21088;-56
2022/01/08 08:53:07;;;;;;;171.15;71.07;;;;;;;-5.78;76.92;97827.93;1720849;80;21028;-56
2022/01/08 08:55:34;;;;;;;107.78;50.52;;;;;;;-5.73;76.92;97832.14;1708429;82;22153;-56
2022/01/08 08:58:01;;;;;;;77.58;33.10;;;;;;;-5.63;77.30;97834.55;1712591;82;21487;-57
2022/01/08 09:00:28;;;;;;;282.90;105.83;;;;;;;-5.52;77.44;97823.52;1712262;82;21320;-55
2022/01/08 09:02:55;;;;;;;308.63;118.25;;;;;;;-5.44;77.79;97830.53;1727019;82;21052;-56
2022/01/08 09:05:22;;;;;;;129.38;56.83;;;;;;;-5.36;77.45;97835.72;1712759;82;21019;-56
2022/01/08 09:07:49;;;;;;;144.70;62.78;;;;;;;-5.25;77.20;97831.29;1699109;82;21079;-56
2022/01/08 09:10:15;;;;;;;86.95;39.63;;;;;;;-5.06;77.37;97831.71;1733460;82;21075;-56
2022/01/08 09:12:42;;;;;;;76.72;34.83;;;;;;;-4.88;77.54;97828.98;1730934;82;21323;-56
2022/01/08 09:15:10;;;;;;;78.90;36.17;;;;;;;-4.66;77.52;97828.52;1737061;82;20981;-56
2022/01/08 09:17:42;;;;;;;89.32;40.50;;;;;;;-4.40;77.69;97823.98;1721608;82;21016;-56
2022/01/08 09:20:08;;;;;;;127.95;54.18;;;;;;;-4.11;77.27;97826.98;1704971;82;20969;-56
2022/01/08 09:22:35;;;;;;;91.78;40.75;;;;;;;-3.88;76.97;97833.38;1711406;82;21070;-56
2022/01/08 09:25:04;;;;;;;84.67;41.05;;;;;;;-3.56;76.41;97831.16;1706545;82;22093;-56
2022/01/08 09:27:31;;;;;;;70.60;35.58;;;;;;;-3.31;75.96;97824.38;1724007;82;21476;-56
2022/01/08 09:29:58;;;;;;;81.02;36.08;;;;;;;-3.08;75.58;97822.73;1735765;82;21072;-56
2022/01/08 09:32:25;;;;;;;62.48;31.82;;;;;;;-2.78;74.82;97815.81;1735945;82;21036;-56
2022/01/08 09:34:52;;;;;;;93.22;38.23;;;;;;;-2.48;73.25;97816.28;1735678;82;21033;-56
2022/01/08 09:37:19;;;;;;;124.30;60.23;;;;;;;-2.25;73.21;97815.41;1729994;82;21393;-56
2022/01/08 09:39:46;;;;;;;137.00;52.15;;;;;;;-1.93;73.20;97807.66;1727299;82;21476;-56
2022/01/08 09:42:13;;;;;;;95.50;35.65;;;;;;;-1.66;72.33;97799.15;1712581;82;21427;-56
2022/01/08 09:44:44;;;;;;;83.50;34.95;;;;;;;-1.42;71.56;97794.50;1711705;82;21535;-56
2022/01/08 09:47:09;;;;;;;69.35;28.98;;;;;;;-1.26;71.74;97795.89;1724396;82;21008;-56
2022/01/08 09:49:35;;;;;;;66.12;29.23;;;;;;;-1.10;69.39;97802.59;1772651;80;21048;-56
2022/01/08 09:52:03;;;;;;;100.58;44.27;;;;;;;-0.93;71.08;97805.89;1677522;84;21009;-56
2022/01/08 09:54:32;;;;;;;72.30;33.13;;;;;;;-0.80;70.78;97797.53;1668720;85;21044;-56
2022/01/08 09:56:59;;;;;;;88.97;38.73;;;;;;;-0.66;69.90;97801.25;1663146;85;21064;-56
2022/01/08 09:59:28;;;;;;;73.42;33.02;;;;;;;-0.62;70.40;97798.97;1659797;85;21046;-57
2022/01/08 10:01:58;;;;;;;55.63;23.98;;;;;;;-0.43;71.21;97794.03;1721724;82;21072;-56
2022/01/08 10:04:27;;;;;;;54.38;25.27;;;;;;;-0.25;69.81;97803.16;1736846;82;20985;-56
2022/01/08 10:07:21;;;;;;;89.80;36.33;;;;;;;-0.21;68.38;97806.49;1707722;82;21000;-56
2022/01/08 10:10:13;;;;;;;111.68;49.75;;;;;;;-0.14;68.38;97806.45;1690083;84;21162;-57
2022/01/08 10:12:58;;;;;;;71.25;26.57;;;;;;;-0.14;69.33;97808.59;1721869;82;21083;-56
2022/01/08 10:18:32;;;;;;;138.40;60.25;;;;;;;-0.04;67.87;97801.45;1711236;82;21028;-56
2022/01/08 10:21:02;;;;;;;64.37;23.18;;;;;;;-0.07;67.73;97792.05;1705064;82;21498;-56
2022/01/08 10:23:31;;;;;;;44.42;20.15;;;;;;;-0.03;65.94;97789.23;1712680;83;21006;-56
2022/01/08 10:26:07;;;;;;;67.30;28.23;;;;;;;-0.01;65.87;97785.83;1712460;82;21503;-56
2022/01/08 10:28:41;;;;;;;55.73;25.48;;;;;;;0.01;65.76;97782.16;1712555;82;21733;-56
2022/01/08 10:31:21;;;;;;;49.88;21.27;;;;;;;0.04;65.44;97785.20;1719229;82;21057;-57
2022/01/08 10:33:52;;;;;;;48.42;22.82;;;;;;;0.16;64.85;97787.43;1737259;82;21472;-57
2022/01/08 10:36:26;;;;;;;82.12;32.65;;;;;;;0.17;64.99;97780.25;1712921;82;21020;-57
2022/01/08 10:38:55;;;;;;;65.08;27.82;;;;;;;0.28;64.38;97780.89;1720054;82;21019;-56
2022/01/08 10:41:23;;;;;;;51.08;22.13;;;;;;;0.29;64.33;97781.19;1704346;82;21325;-56
2022/01/08 10:44:10;;;;;;;59.38;29.90;;;;;;;0.41;63.52;97771.41;1718481;82;21087;-57
2022/01/08 10:46:38;;;;;;;73.17;28.45;;;;;;;0.45;63.60;97775.80;1703273;82;21008;-58
2022/01/08 10:49:05;;;;;;;91.67;35.45;;;;;;;0.54;62.41;97769.95;1754575;80;20974;-59
2022/01/08 10:51:37;;;;;;;56.55;24.23;;;;;;;0.58;60.86;97764.98;1732308;80;21007;-56
2022/01/08 10:54:14;;;;;;;65.22;26.75;;;;;;;0.51;61.32;97766.41;1712685;82;21750;-56
2022/01/08 10:56:45;;;;;;;99.97;34.73;;;;;;;0.54;61.61;97761.95;1722063;81;21072;-56
2022/01/08 10:59:23;;;;;;;86.05;32.42;;;;;;;0.67;62.61;97762.31;1737192;82;21004;-56
2022/01/08 11:02:11;;;;;;;79.90;27.13;;;;;;;0.83;62.45;97758.23;1733349;82;21013;-56
2022/01/08 11:04:52;;;;;;;36.00;16.27;;;;;;;1.04;61.81;97751.63;1737209;82;21017;-56
2022/01/08 11:07:23;;;;;;;44.70;21.10;;;;;;;1.13;60.24;97750.28;1736441;82;20992;-56
2022/01/08 11:10:04;;;;;;;33.83;15.40;;;;;;;1.21;60.86;97745.96;1736845;82;21088;-56
2022/01/08 11:12:38;;;;;;;34.43;9.95;;;;;;;1.23;60.17;97739.05;1737115;82;20969;-56
2022/01/08 11:17:40;;;;;;;22.07;11.97;;;;;;;1.33;56.69;97737.46;1710782;82;21095;-56
2022/01/08 11:20:20;;;;;;;24.45;12.63;;;;;;;1.27;56.59;97734.88;1706172;82;21480;-56
2022/01/08 11:22:49;;;;;;;29.23;12.78;;;;;;;1.12;55.57;97729.45;1691054;82;20999;-56
2022/01/08 11:25:21;;;;;;;37.67;15.18;;;;;;;1.05;56.10;97731.39;1693395;82;21011;-56
2022/01/08 11:28:08;;;;;;;35.83;17.50;;;;;;;1.10;57.64;97734.17;1712581;82;20983;-56
2022/01/08 11:30:52;;;;;;;30.00;14.75;;;;;;;1.14;59.61;97739.89;1712496;82;21011;-56
2022/01/08 11:33:26;;;;;;;37.55;15.78;;;;;;;1.28;59.85;97732.50;1702233;82;21530;-55
2022/01/08 11:35:51;;;;;;;68.47;22.00;;;;;;;1.35;60.45;97735.38;1717486;82;21424;-56
2022/01/08 11:38:21;;;;;;;63.25;20.92;;;;;;;1.45;60.33;97735.34;1713339;82;21027;-56
2022/01/08 11:40:50;;;;;;;47.35;20.23;;;;;;;1.41;58.87;97729.13;1719489;82;21030;-56
2022/01/08 11:43:20;;;;;;;60.43;26.87;;;;;;;1.33;58.64;97728.64;1710494;82;21437;-56
2022/01/08 11:46:02;;;;;;;52.15;23.65;;;;;;;1.28;57.75;97721.33;1707581;82;21396;-56
2022/01/08 11:48:45;;;;;;;103.35;42.93;;;;;;;1.24;59.37;97725.48;1756134;80;21048;-56